Time;durP1;ratioP1;P1;durP2;ratioP2;P2;SDS_P1;SDS_P2;PMS_P1;PMS_P2;Temp;Humidity;BMP_temperature;BMP_pressure;BME280_temperature;BME280_humidity;BME280_pressure;Samples;Min_cycle;Max_cycle;Signal;HPM_P1;HPM_P2
2023/04/10 00:02:23;;;;;;;13.05;9.70;;;11.50;99.90;;;;;;5019814;28;20225;-72
2023/04/10 00:05:12;;;;;;;10.18;8.77;;;11.40;99.90;;;;;;5034094;28;20855;-72
2023/04/10 00:08:02;;;;;;;11.88;9.57;;;11.30;99.90;;;;;;5032213;28;20236;-72
2023/04/10 00:10:52;;;;;;;11.40;9.40;;;11.40;99.90;;;;;;5039825;28;20237;-72
2023/04/10 00:13:42;;;;;;;9.50;8.40;;;11.30;99.90;;;;;;5034795;28;20263;-72
2023/04/10 00:16:31;;;;;;;10.25;8.68;;;11.40;99.90;;;;;;5032939;28;20324;-72
2023/04/10 00:19:19;;;;;;;12.15;8.88;;;11.40;99.90;;;;;;5025996;28;20217;-71
2023/04/10 00:22:08;;;;;;;12.55;9.00;;;11.30;99.90;;;;;;5050301;28;20293;-71
2023/04/10 00:24:57;;;;;;;10.88;8.90;;;11.30;99.90;;;;;;5030678;28;20256;-70
2023/04/10 00:27:45;;;;;;;14.77;9.50;;;11.20;99.90;;;;;;5023221;28;20238;-71
2023/04/10 00:30:36;;;;;;;11.70;8.82;;;11.20;99.90;;;;;;5037241;28;20232;-73
2023/04/10 00:33:25;;;;;;;15.18;9.75;;;11.30;99.90;;;;;;5023636;28;20221;-73
2023/04/10 00:36:13;;;;;;;12.40;8.90;;;11.30;99.90;;;;;;5027878;28;20226;-72
2023/04/10 00:39:02;;;;;;;13.75;10.50;;;11.40;99.90;;;;;;5039548;28;20252;-76
2023/04/10 00:41:51;;;;;;;13.43;10.15;;;11.50;99.90;;;;;;5037363;28;20224;-73
2023/04/10 00:44:40;;;;;;;13.75;10.80;;;11.50;99.90;;;;;;5026132;28;20241;-73
2023/04/10 00:47:31;;;;;;;12.30;10.27;;;11.30;99.90;;;;;;5036158;28;20237;-71
2023/04/10 00:50:20;;;;;;;14.63;10.98;;;11.40;99.90;;;;;;5038764;28;20332;-72
2023/04/10 00:53:10;;;;;;;16.60;12.88;;;11.30;99.90;;;;;;5038145;28;20334;-73
2023/04/10 00:56:00;;;;;;;15.27;12.30;;;11.20;99.90;;;;;;5037966;28;20784;-72
2023/04/10 00:58:49;;;;;;;17.10;12.93;;;11.30;99.90;;;;;;5027571;28;20684;-72
2023/04/10 01:01:38;;;;;;;16.40;12.63;;;11.10;99.90;;;;;;5031959;28;20357;-71
2023/04/10 01:04:30;;;;;;;15.10;12.00;;;11.10;99.90;;;;;;5038428;28;20229;-72
2023/04/10 01:07:27;;;;;;;16.58;11.85;;;11.10;99.90;;;;;;5039214;28;20224;-71
2023/04/10 01:10:24;;;;;;;16.92;11.38;;;11.20;99.90;;;;;;5026866;28;20212;-70
2023/04/10 01:13:21;;;;;;;14.93;11.10;;;11.00;99.90;;;;;;5036770;28;20235;-71
2023/04/10 01:16:19;;;;;;;15.77;11.77;;;11.00;99.90;;;;;;5036268;28;20239;-71
2023/04/10 01:19:23;;;;;;;15.55;12.88;;;10.70;99.90;;;;;;5036858;28;20257;-70
2023/04/10 01:22:16;;;;;;;17.15;12.38;;;10.60;99.90;;;;;;5042847;28;20239;-71
2023/04/10 01:25:30;;;;;;;19.52;12.10;;;10.70;99.90;;;;;;5029405;28;20775;-70
2023/04/10 01:28:52;;;;;;;17.25;12.63;;;10.70;99.90;;;;;;5029524;28;20304;-73
2023/04/10 01:31:46;;;;;;;15.20;12.50;;;10.70;99.90;;;;;;5033603;28;20248;-71
2023/04/10 01:34:40;;;;;;;19.98;12.18;;;10.70;99.90;;;;;;5039024;28;20228;-72
2023/04/10 01:37:32;;;;;;;17.05;13.25;;;10.60;99.90;;;;;;5015457;28;20275;-73
2023/04/10 01:40:22;;;;;;;16.73;12.88;;;10.70;99.90;;;;;;5041390;28;20604;-72
2023/04/10 01:43:12;;;;;;;17.35;12.45;;;10.80;99.90;;;;;;5036664;28;20225;-71
2023/04/10 01:46:10;;;;;;;18.20;13.15;;;10.80;99.90;;;;;;5016712;28;20225;-71
2023/04/10 01:49:02;;;;;;;17.38;13.35;;;10.70;99.90;;;;;;5015730;28;21037;-72
2023/04/10 01:51:53;;;;;;;19.52;13.43;;;10.80;99.90;;;;;;5039997;28;20245;-71
2023/04/10 01:54:44;;;;;;;16.42;13.15;;;10.70;99.90;;;;;;5025649;28;20558;-71
2023/04/10 01:57:36;;;;;;;16.17;12.73;;;10.70;99.90;;;;;;5033694;28;20232;-72
2023/04/10 02:00:25;;;;;;;15.88;12.02;;;10.70;99.90;;;;;;5043309;28;20298;-72
2023/04/10 02:03:15;;;;;;;15.75;13.13;;;10.80;99.90;;;;;;5033436;28;20403;-71
2023/04/10 02:06:14;;;;;;;15.77;11.82;;;10.70;99.90;;;;;;5020546;28;20221;-73
2023/04/10 02:09:11;;;;;;;13.95;11.75;;;10.60;99.90;;;;;;5033310;28;20233;-73
2023/04/10 02:12:05;;;;;;;16.65;11.55;;;10.60;99.90;;;;;;5031665;28;20244;-72
2023/04/10 02:14:56;;;;;;;15.43;11.40;;;10.70;99.90;;;;;;5028867;28;20230;-71
2023/04/10 02:17:46;;;;;;;13.10;11.40;;;10.70;99.90;;;;;;5031953;28;20290;-71
2023/04/10 02:20:37;;;;;;;14.05;11.15;;;10.80;99.90;;;;;;5028574;28;20306;-72
2023/04/10 02:23:26;;;;;;;15.27;11.30;;;10.80;99.90;;;;;;5026671;28;20237;-71
2023/04/10 02:26:15;;;;;;;14.73;11.10;;;10.80;99.90;;;;;;5031035;28;20229;-70
2023/04/10 02:29:04;;;;;;;12.43;11.05;;;10.80;99.90;;;;;;5043668;28;20229;-72
2023/04/10 02:31:55;;;;;;;14.65;10.40;;;10.80;99.90;;;;;;5020277;28;20241;-71
2023/04/10 02:34:44;;;;;;;14.20;10.52;;;10.90;99.90;;;;;;5043560;28;20232;-71
2023/04/10 02:37:35;;;;;;;14.25;10.32;;;10.90;99.90;;;;;;5035266;28;20254;-72
2023/04/10 02:40:24;;;;;;;12.43;10.35;;;10.90;99.90;;;;;;5023175;28;20247;-72
2023/04/10 02:43:29;;;;;;;15.88;10.57;;;11.00;99.90;;;;;;5020493;28;20262;-71
2023/04/10 02:46:18;;;;;;;15.68;11.05;;;10.80;99.90;;;;;;5033090;28;20605;-72
2023/04/10 02:49:07;;;;;;;14.63;10.02;;;10.80;99.90;;;;;;5018663;28;20236;-71
2023/04/10 02:51:56;;;;;;;14.85;11.05;;;10.90;99.90;;;;;;5035500;28;20233;-72
2023/04/10 02:54:46;;;;;;;12.90;10.50;;;11.00;99.90;;;;;;5003847;28;20899;-72
2023/04/10 02:57:35;;;;;;;14.63;10.70;;;11.00;99.90;;;;;;5041342;28;20743;-72
2023/04/10 03:00:24;;;;;;;15.50;10.05;;;10.90;99.90;;;;;;5017271;28;20225;-72
2023/04/10 03:03:39;;;;;;;13.23;10.30;;;10.90;99.90;;;;;;5022755;28;20331;-71
2023/04/10 03:06:29;;;;;;;15.32;10.63;;;10.90;99.90;;;;;;5034234;28;20268;-72
2023/04/10 03:09:18;;;;;;;13.93;10.55;;;11.00;99.90;;;;;;5027790;28;20236;-71
2023/04/10 03:12:09;;;;;;;12.68;10.45;;;10.90;99.90;;;;;;5024373;28;20253;-72
2023/04/10 03:14:58;;;;;;;13.20;10.27;;;10.90;99.90;;;;;;5027166;28;20229;-72
2023/04/10 03:17:47;;;;;;;13.63;10.30;;;10.80;99.90;;;;;;5044747;28;20217;-72
2023/04/10 03:20:37;;;;;;;12.73;9.93;;;10.70;99.90;;;;;;5025081;28;20304;-72
2023/04/10 03:23:26;;;;;;;12.85;10.82;;;10.60;99.90;;;;;;5027626;28;20232;-73
2023/04/10 03:26:14;;;;;;;14.40;10.40;;;10.70;99.90;;;;;;5028374;28;20743;-71
2023/04/10 03:29:05;;;;;;;14.50;10.48;;;10.80;99.90;;;;;;5047250;28;20354;-70
2023/04/10 03:31:55;;;;;;;14.48;10.25;;;10.80;99.90;;;;;;5038114;28;20724;-72
2023/04/10 03:34:45;;;;;;;12.80;10.20;;;10.70;99.90;;;;;;5031211;28;20228;-72
2023/04/10 03:37:34;;;;;;;14.43;10.48;;;10.80;99.90;;;;;;5015021;28;20307;-71
2023/04/10 03:40:24;;;;;;;12.80;10.07;;;10.70;99.90;;;;;;5034956;28;20653;-73
2023/04/10 03:43:13;;;;;;;12.43;10.18;;;10.80;99.90;;;;;;5042457;28;20256;-72
2023/04/10 03:46:03;;;;;;;14.20;10.82;;;10.80;99.90;;;;;;5027646;28;20224;-71
2023/04/10 03:48:52;;;;;;;12.10;10.23;;;10.70;99.90;;;;;;5043678;28;20220;-71
2023/04/10 03:51:42;;;;;;;14.05;10.60;;;10.60;99.90;;;;;;5017573;28;20230;-73
2023/04/10 03:54:31;;;;;;;12.23;10.15;;;10.60;99.90;;;;;;5028118;28;20237;-72
2023/04/10 03:57:20;;;;;;;12.60;10.07;;;10.60;99.90;;;;;;5035757;28;20685;-72
2023/04/10 04:00:11;;;;;;;14.32;10.30;;;10.60;99.90;;;;;;5022046;28;20871;-73
2023/04/10 04:03:11;;;;;;;14.88;11.23;;;10.80;99.90;;;;;;5026690;28;20256;-72
2023/04/10 04:06:09;;;;;;;15.10;10.30;;;10.80;99.90;;;;;;5031373;28;20232;-73
2023/04/10 04:09:03;;;;;;;14.60;11.02;;;10.80;99.90;;;;;;5041144;28;20229;-72
2023/04/10 04:12:16;;;;;;;15.13;10.73;;;10.80;99.90;;;;;;5019453;28;20288;-73
2023/04/10 04:15:37;;;;;;;12.43;9.77;;;10.80;99.90;;;;;;4990932;28;20225;-71
2023/04/10 04:18:39;;;;;;;12.50;10.25;;;10.70;99.90;;;;;;5039099;28;20251;-72
2023/04/10 04:21:50;;;;;;;13.85;10.27;;;10.70;99.90;;;;;;5046282;28;20282;-71
2023/04/10 04:25:01;;;;;;;12.93;9.63;;;10.80;99.90;;;;;;5026862;28;20338;-71
2023/04/10 04:28:06;;;;;;;13.45;9.95;;;10.80;99.90;;;;;;5025139;28;20593;-71
2023/04/10 04:31:18;;;;;;;13.82;9.90;;;10.90;99.90;;;;;;5022522;28;20218;-73
2023/04/10 04:34:28;;;;;;;12.80;9.55;;;10.80;99.90;;;;;;5038975;28;20335;-73
2023/04/10 04:37:35;;;;;;;10.43;9.00;;;10.90;99.90;;;;;;5035002;28;20233;-73
2023/04/10 04:40:43;;;;;;;13.18;9.98;;;11.00;99.90;;;;;;5019998;28;20237;-72
2023/04/10 04:44:07;;;;;;;10.65;9.52;;;10.90;99.90;;;;;;4960321;28;20215;-73
2023/04/10 04:47:25;;;;;;;12.40;9.50;;;11.00;99.90;;;;;;5013425;28;20936;-72
2023/04/10 04:50:18;;;;;;;14.27;10.07;;;11.10;99.90;;;;;;5035556;28;20307;-73
2023/04/10 04:53:42;;;;;;;11.48;8.75;;;11.20;99.90;;;;;;4949273;28;20237;-73
2023/04/10 04:56:50;;;;;;;11.73;9.00;;;11.20;99.90;;;;;;5041401;28;20224;-72
2023/04/10 04:59:49;;;;;;;10.13;8.63;;;11.20;99.90;;;;;;5025672;28;20252;-74
2023/04/10 05:02:58;;;;;;;11.27;8.52;;;11.20;99.90;;;;;;5035996;28;20229;-73
2023/04/10 05:05:58;;;;;;;13.13;8.90;;;11.40;99.90;;;;;;5032230;28;20229;-74
2023/04/10 05:09:13;;;;;;;11.93;8.75;;;11.40;99.90;;;;;;5006849;28;20229;-73
2023/04/10 05:12:07;;;;;;;10.98;8.82;;;11.50;99.90;;;;;;5036075;28;20418;-73
2023/04/10 05:15:16;;;;;;;10.32;9.13;;;11.50;99.90;;;;;;5025645;28;20600;-72
2023/04/10 05:18:32;;;;;;;12.85;9.27;;;11.70;99.90;;;;;;5029631;28;20229;-72
2023/04/10 05:21:34;;;;;;;11.60;8.68;;;11.80;99.90;;;;;;5027622;28;20689;-71
2023/04/10 05:24:27;;;;;;;13.35;10.13;;;11.80;99.90;;;;;;5010195;28;20232;-72
2023/04/10 05:27:33;;;;;;;15.93;8.95;;;12.00;99.90;;;;;;5018244;28;21015;-72
2023/04/10 05:30:28;;;;;;;11.85;9.00;;;12.00;99.90;;;;;;5022604;28;20234;-71
2023/04/10 05:33:52;;;;;;;12.02;9.10;;;12.10;99.90;;;;;;5021356;28;20265;-71
2023/04/10 05:37:11;;;;;;;11.70;8.88;;;12.20;99.90;;;;;;5027961;28;20235;-69
2023/04/10 05:40:26;;;;;;;11.25;8.15;;;12.20;99.90;;;;;;5034591;28;20255;-71
2023/04/10 05:43:38;;;;;;;12.52;9.18;;;12.50;99.90;;;;;;5038689;28;20234;-70
2023/04/10 05:46:33;;;;;;;10.02;8.90;;;12.40;99.90;;;;;;5026463;28;20229;-71
2023/04/10 05:49:42;;;;;;;12.05;8.85;;;12.50;99.90;;;;;;5028817;28;20225;-68
2023/04/10 05:53:02;;;;;;;12.50;8.88;;;12.00;99.90;;;;;;4970591;28;20244;-73
2023/04/10 05:56:12;;;;;;;10.95;8.23;;;12.10;99.90;;;;;;5034640;28;20373;-70
2023/04/10 05:59:01;;;;;;;11.02;8.50;;;11.90;99.90;;;;;;5041738;28;20217;-73
2023/04/10 06:02:15;;;;;;;9.80;8.45;;;12.10;99.90;;;;;;5017199;28;20224;-72
2023/04/10 06:05:06;;;;;;;10.35;8.90;;;12.10;99.90;;;;;;5041109;28;20228;-72
2023/04/10 06:07:56;;;;;;;10.93;8.95;;;12.60;99.90;;;;;;5045593;28;20239;-72
2023/04/10 06:10:48;;;;;;;11.13;9.18;;;12.90;99.90;;;;;;5027894;28;20315;-73
2023/04/10 06:13:36;;;;;;;13.55;10.45;;;12.60;99.90;;;;;;5038451;28;20385;-73
2023/04/10 06:16:25;;;;;;;11.70;9.57;;;12.70;99.90;;;;;;5027288;28;20295;-73
2023/04/10 06:19:15;;;;;;;15.23;10.23;;;12.30;99.90;;;;;;5024508;28;20620;-73
2023/04/10 06:22:04;;;;;;;13.02;10.85;;;12.10;99.90;;;;;;5022369;28;20241;-73
2023/04/10 06:24:52;;;;;;;12.45;11.05;;;12.50;99.90;;;;;;5029285;28;20234;-74
2023/04/10 06:27:43;;;;;;;12.43;10.27;;;12.70;99.90;;;;;;5041332;28;20278;-72
2023/04/10 06:30:33;;;;;;;11.73;10.48;;;12.50;99.90;;;;;;5032126;28;20229;-76
2023/04/10 06:33:22;;;;;;;15.20;11.25;;;12.50;99.90;;;;;;5042401;28;20216;-73
2023/04/10 06:36:14;;;;;;;14.55;10.98;;;12.40;99.90;;;;;;5039267;28;20225;-74
2023/04/10 06:39:08;;;;;;;12.07;10.38;;;12.50;99.90;;;;;;5030955;28;20647;-73
2023/04/10 06:41:58;;;;;;;12.85;9.93;;;12.50;99.90;;;;;;5022827;28;20240;-72
2023/04/10 06:45:04;;;;;;;12.57;10.73;;;12.60;99.90;;;;;;5024117;28;20225;-72
2023/04/10 06:47:53;;;;;;;15.25;11.00;;;12.40;99.90;;;;;;5035303;28;20229;-72
2023/04/10 06:50:41;;;;;;;13.93;11.25;;;12.30;99.90;;;;;;5021556;28;20260;-73
2023/04/10 06:53:31;;;;;;;13.60;10.60;;;12.50;99.90;;;;;;5023571;28;20232;-74
2023/04/10 06:56:20;;;;;;;13.13;9.82;;;12.50;99.90;;;;;;5038245;28;20229;-73
2023/04/10 06:59:08;;;;;;;14.88;11.25;;;12.90;99.90;;;;;;5035623;28;20221;-73
2023/04/10 07:01:59;;;;;;;15.38;11.27;;;13.20;99.90;;;;;;5033181;28;20224;-73
2023/04/10 07:04:48;;;;;;;13.00;10.07;;;13.70;99.90;;;;;;5039636;28;20233;-73
2023/04/10 07:07:37;;;;;;;11.70;10.02;;;14.50;99.90;;;;;;5043202;28;20722;-71
2023/04/10 07:10:26;;;;;;;12.73;9.73;;;15.00;99.90;;;;;;5033908;28;20240;-73
2023/04/10 07:13:15;;;;;;;12.02;9.88;;;15.40;99.90;;;;;;5029285;28;20213;-73
2023/04/10 07:16:03;;;;;;;10.13;8.93;;;15.70;99.90;;;;;;5028664;28;20213;-73
2023/04/10 07:18:54;;;;;;;12.25;9.65;;;15.50;99.90;;;;;;5024001;28;20476;-73
2023/04/10 07:21:43;;;;;;;11.35;9.73;;;15.70;99.90;;;;;;5043991;28;20236;-72
2023/04/10 07:24:32;;;;;;;12.00;9.30;;;16.40;99.90;;;;;;5043156;28;20229;-73
2023/04/10 07:27:22;;;;;;;14.48;9.77;;;17.00;99.90;;;;;;5044384;28;20263;-74
2023/04/10 07:30:11;;;;;;;11.85;9.25;;;17.00;99.90;;;;;;5038254;28;20223;-74
2023/04/10 07:33:01;;;;;;;13.73;9.68;;;17.00;99.90;;;;;;5026856;28;20716;-74
2023/04/10 07:35:52;;;;;;;12.63;9.25;;;16.40;99.90;;;;;;5009947;28;20239;-75
2023/04/10 07:38:42;;;;;;;11.35;8.88;;;16.30;99.90;;;;;;5029045;28;20324;-73
2023/04/10 07:41:31;;;;;;;10.25;8.65;;;16.10;99.90;;;;;;5024891;28;20259;-74
2023/04/10 07:44:19;;;;;;;10.43;8.38;;;16.70;99.90;;;;;;5034438;28;20750;-72
2023/04/10 07:47:08;;;;;;;13.02;8.68;;;17.30;99.90;;;;;;5029387;28;20308;-72
2023/04/10 07:49:57;;;;;;;11.18;9.43;;;17.30;99.90;;;;;;5041371;28;20244;-72
2023/04/10 07:52:48;;;;;;;10.52;8.75;;;16.60;99.90;;;;;;5037833;28;20229;-74
2023/04/10 07:55:40;;;;;;;11.90;9.88;;;16.30;99.90;;;;;;5013693;28;20328;-73
2023/04/10 07:58:29;;;;;;;11.40;9.65;;;16.20;99.90;;;;;;5016748;28;20244;-73
2023/04/10 08:01:18;;;;;;;11.73;9.60;;;16.80;99.90;;;;;;5013524;28;20226;-74
2023/04/10 08:04:07;;;;;;;13.57;9.80;;;16.80;99.90;;;;;;5031676;28;20343;-73
2023/04/10 08:06:57;;;;;;;11.93;9.68;;;16.90;99.90;;;;;;5047767;28;20312;-74
2023/04/10 08:09:47;;;;;;;11.23;10.00;;;16.70;99.90;;;;;;5042934;28;20316;-74
2023/04/10 08:12:37;;;;;;;11.38;9.25;;;16.50;99.90;;;;;;5018477;28;20229;-74
2023/04/10 08:15:25;;;;;;;11.70;8.95;;;16.70;99.90;;;;;;5021722;28;20225;-74
2023/04/10 08:18:14;;;;;;;10.95;9.18;;;16.50;99.90;;;;;;5012268;28;20229;-73
2023/04/10 08:21:03;;;;;;;9.45;8.43;;;16.70;99.90;;;;;;5027232;28;20240;-73
2023/04/10 08:23:52;;;;;;;13.02;7.88;;;17.20;99.90;;;;;;5032846;28;20237;-71
2023/04/10 08:26:42;;;;;;;9.55;7.78;;;17.20;99.90;;;;;;5031297;28;20228;-73
2023/04/10 08:29:31;;;;;;;8.70;7.35;;;18.00;99.90;;;;;;5038253;28;20956;-73
2023/04/10 08:32:20;;;;;;;9.63;6.70;;;18.00;99.90;;;;;;5017000;28;20208;-74
2023/04/10 08:35:09;;;;;;;9.85;6.38;;;18.40;99.90;;;;;;5035214;28;20303;-74
2023/04/10 08:37:58;;;;;;;7.35;6.30;;;18.80;99.90;;;;;;5024172;28;20249;-73
2023/04/10 08:41:01;;;;;;;7.40;6.38;;;18.80;99.90;;;;;;5036308;28;20228;-74
2023/04/10 08:43:51;;;;;;;9.90;6.35;;;18.50;99.90;;;;;;5031959;28;20347;-73
2023/04/10 08:46:43;;;;;;;10.68;6.30;;;19.50;99.90;;;;;;5038918;28;20711;-73
2023/04/10 08:49:40;;;;;;;7.10;6.15;;;19.60;99.90;;;;;;5017378;28;20218;-72
2023/04/10 08:52:31;;;;;;;7.53;6.25;;;19.70;99.90;;;;;;5036700;28;20236;-72
2023/04/10 08:55:20;;;;;;;7.28;5.90;;;19.00;99.90;;;;;;5027540;28;20315;-71
2023/04/10 08:58:10;;;;;;;6.43;5.65;;;18.70;99.90;;;;;;5034080;28;20234;-73
2023/04/10 09:01:01;;;;;;;7.10;5.43;;;18.50;99.90;;;;;;5023638;28;20332;-71
2023/04/10 09:03:50;;;;;;;7.65;5.80;;;18.70;99.90;;;;;;5027939;28;20237;-72
2023/04/10 09:06:39;;;;;;;8.30;5.50;;;18.60;99.90;;;;;;5021154;28;20241;-72
2023/04/10 09:09:31;;;;;;;6.65;5.82;;;18.80;99.90;;;;;;5029728;28;20229;-71
2023/04/10 09:12:20;;;;;;;8.50;6.25;;;18.80;99.90;;;;;;5027338;28;20640;-72
2023/04/10 09:15:09;;;;;;;9.30;6.25;;;19.10;99.90;;;;;;5028483;28;20298;-72
2023/04/10 09:18:01;;;;;;;7.32;6.25;;;18.80;99.90;;;;;;5021717;28;20226;-72
2023/04/10 09:20:50;;;;;;;7.55;6.07;;;18.30;99.90;;;;;;5020725;28;20233;-72
2023/04/10 09:23:39;;;;;;;9.80;6.53;;;17.70;99.90;;;;;;5018391;28;20255;-72
2023/04/10 09:26:29;;;;;;;7.97;6.00;;;17.60;99.90;;;;;;5037452;28;20225;-72
2023/04/10 09:29:19;;;;;;;9.02;5.55;;;17.30;99.90;;;;;;5023177;28;20236;-72
2023/04/10 09:32:08;;;;;;;6.00;5.03;;;16.80;99.90;;;;;;5031509;28;20232;-73
2023/04/10 09:34:58;;;;;;;6.38;5.60;;;16.70;99.90;;;;;;5023893;28;20789;-72
2023/04/10 09:37:47;;;;;;;7.30;5.50;;;16.90;99.90;;;;;;5020609;28;20726;-70
2023/04/10 09:40:36;;;;;;;6.18;5.57;;;16.80;99.90;;;;;;5022896;28;20610;-72
2023/04/10 09:43:27;;;;;;;9.45;5.95;;;16.90;99.90;;;;;;5026523;28;20323;-72
2023/04/10 09:46:27;;;;;;;6.38;5.68;;;17.30;99.90;;;;;;5023721;28;20213;-72
2023/04/10 09:49:17;;;;;;;9.93;4.97;;;17.30;99.90;;;;;;5046948;28;20233;-72
2023/04/10 09:52:18;;;;;;;5.88;4.68;;;17.00;99.90;;;;;;5026803;28;20224;-71
2023/04/10 09:55:08;;;;;;;5.88;4.03;;;16.70;99.90;;;;;;5023933;28;20213;-71
2023/04/10 09:57:58;;;;;;;4.20;3.80;;;16.80;99.90;;;;;;5021339;28;20728;-72
2023/04/10 10:01:12;;;;;;;5.22;3.88;;;17.30;99.90;;;;;;5023993;28;20220;-73
2023/04/10 10:04:03;;;;;;;7.45;4.70;;;17.70;99.90;;;;;;5033190;28;20316;-72
2023/04/10 10:06:52;;;;;;;5.70;4.43;;;17.70;99.90;;;;;;5018129;28;20229;-72
2023/04/10 10:09:43;;;;;;;7.65;4.28;;;18.50;99.90;;;;;;5017902;28;20233;-72
2023/04/10 10:12:40;;;;;;;5.93;4.35;;;18.50;99.90;;;;;;5027341;28;20233;-73
2023/04/10 10:15:37;;;;;;;4.90;4.07;;;18.70;99.90;;;;;;5042409;28;20946;-72
2023/04/10 10:18:32;;;;;;;6.95;3.95;;;18.20;99.90;;;;;;5035333;28;20236;-72
2023/04/10 10:21:22;;;;;;;7.78;5.45;;;17.90;99.90;;;;;;5037098;28;20273;-71
2023/04/10 10:24:13;;;;;;;4.78;3.05;;;17.90;99.90;;;;;;5038793;28;20314;-72
2023/04/10 10:27:09;;;;;;;4.30;3.40;;;17.20;99.90;;;;;;5042900;28;20595;-72
2023/04/10 10:30:00;;;;;;;5.57;3.97;;;17.20;99.90;;;;;;5016209;28;20286;-72
2023/04/10 10:33:00;;;;;;;5.43;3.75;;;17.10;99.90;;;;;;5026742;28;20221;-73
2023/04/10 10:35:50;;;;;;;4.75;3.88;;;16.50;99.90;;;;;;5026033;28;20334;-72
2023/04/10 10:38:43;;;;;;;8.82;3.92;;;16.70;99.90;;;;;;5041840;28;20233;-72
2023/04/10 10:41:40;;;;;;;6.63;4.15;;;17.00;99.90;;;;;;5026473;28;20231;-73
2023/04/10 10:44:38;;;;;;;4.00;3.60;;;16.70;99.90;;;;;;5004589;28;20295;-73
2023/04/10 10:47:30;;;;;;;9.50;6.07;;;16.80;99.90;;;;;;5027150;28;20226;-72
2023/04/10 10:50:19;;;;;;;3.65;3.33;;;17.40;99.90;;;;;;5026941;28;20315;-71
2023/04/10 10:53:34;;;;;;;11.35;3.88;;;17.60;99.90;;;;;;5026707;28;20441;-72
2023/04/10 10:56:36;;;;;;;5.60;3.55;;;17.00;99.90;;;;;;5033958;28;20240;-72
2023/04/10 10:59:56;;;;;;;5.32;3.50;;;17.20;99.90;;;;;;5038191;28;20217;-72
2023/04/10 11:02:45;;;;;;;7.80;4.30;;;17.10;99.90;;;;;;5006512;28;20681;-72
2023/04/10 11:05:50;;;;;;;7.55;4.30;;;17.10;99.90;;;;;;5042070;28;20224;-73
2023/04/10 11:08:45;;;;;;;5.28;4.05;;;17.30;99.90;;;;;;5044157;28;20296;-73
2023/04/10 11:11:57;;;;;;;5.68;3.67;;;17.40;99.90;;;;;;5030234;28;20253;-71
2023/04/10 11:14:59;;;;;;;4.90;3.80;;;17.50;99.90;;;;;;5026020;28;20259;-71
2023/04/10 11:17:50;;;;;;;5.22;3.22;;;16.90;99.90;;;;;;5036595;28;20235;-71
2023/04/10 11:21:09;;;;;;;5.57;3.33;;;16.90;99.90;;;;;;5034462;28;20264;-71
2023/04/10 11:24:05;;;;;;;7.40;4.40;;;17.30;99.90;;;;;;5020945;28;20221;-72
2023/04/10 11:26:55;;;;;;;4.18;3.30;;;17.60;99.90;;;;;;5023633;28;20731;-72
2023/04/10 11:29:43;;;;;;;4.55;3.10;;;17.70;99.90;;;;;;5041852;28;20350;-72
2023/04/10 11:32:41;;;;;;;7.03;3.30;;;17.60;99.90;;;;;;5043828;28;20334;-72
2023/04/10 11:35:31;;;;;;;5.90;3.85;;;17.80;99.90;;;;;;5036350;28;20228;-72
2023/04/10 11:38:20;;;;;;;6.75;3.60;;;18.10;99.90;;;;;;5027860;28;20321;-72
2023/04/10 11:41:09;;;;;;;6.13;3.45;;;18.10;99.90;;;;;;5040080;28;20232;-71
2023/04/10 11:43:58;;;;;;;6.10;3.17;;;17.70;99.90;;;;;;5045500;28;20910;-72
2023/04/10 11:46:50;;;;;;;5.72;3.60;;;17.90;99.90;;;;;;5031036;28;20255;-71
2023/04/10 11:49:40;;;;;;;6.25;3.92;;;17.60;99.90;;;;;;5041924;28;20221;-72
2023/04/10 11:52:29;;;;;;;4.80;3.42;;;17.70;99.90;;;;;;5032871;28;20947;-70
2023/04/10 11:55:19;;;;;;;5.13;3.53;;;18.10;99.90;;;;;;5041281;28;20603;-73
2023/04/10 11:58:25;;;;;;;4.70;3.50;;;18.30;99.90;;;;;;5034075;28;20256;-72
2023/04/10 12:01:14;;;;;;;3.97;3.33;;;18.30;99.90;;;;;;5036615;28;20233;-72
2023/04/10 12:04:03;;;;;;;4.75;3.72;;;18.30;99.90;;;;;;5033352;28;20600;-72
2023/04/10 12:06:57;;;;;;;4.40;3.30;;;18.20;99.90;;;;;;5037454;28;20237;-72
2023/04/10 12:09:46;;;;;;;6.50;3.00;;;18.10;99.90;;;;;;5034062;28;20325;-72
2023/04/10 12:12:35;;;;;;;7.70;3.22;;;18.20;99.90;;;;;;5040716;28;20298;-72
2023/04/10 12:15:27;;;;;;;7.70;3.08;;;18.50;99.90;;;;;;5030809;28;20220;-72
2023/04/10 12:18:17;;;;;;;5.55;2.90;;;18.80;99.90;;;;;;5033845;28;20236;-72
2023/04/10 12:21:07;;;;;;;4.40;2.90;;;18.50;99.90;;;;;;5034529;28;20221;-73
2023/04/10 12:23:58;;;;;;;5.35;2.90;;;18.10;99.90;;;;;;5041258;28;20763;-72
2023/04/10 12:26:49;;;;;;;4.57;2.88;;;18.10;99.90;;;;;;5031842;28;20236;-72
2023/04/10 12:29:38;;;;;;;8.45;3.40;;;17.60;99.90;;;;;;5033790;28;20225;-71
2023/04/10 12:32:27;;;;;;;4.05;3.15;;;17.40;99.90;;;;;;5048857;28;20278;-72
2023/04/10 12:35:16;;;;;;;4.47;3.60;;;17.50;99.90;;;;;;5033443;28;20341;-72
2023/04/10 12:38:07;;;;;;;5.82;3.08;;;17.90;99.90;;;;;;5021437;28;20231;-72
2023/04/10 12:41:01;;;;;;;4.55;3.22;;;18.00;99.90;;;;;;5047756;28;20228;-72
2023/04/10 12:43:50;;;;;;;5.35;3.10;;;17.90;99.90;;;;;;5027500;28;20617;-73
2023/04/10 12:46:39;;;;;;;5.05;3.25;;;18.10;99.90;;;;;;5026940;28;20230;-73
2023/04/10 12:49:28;;;;;;;3.53;3.03;;;18.00;99.90;;;;;;5018276;28;20748;-71
2023/04/10 12:52:23;;;;;;;6.50;3.03;;;18.00;99.90;;;;;;5046519;28;20724;-71
2023/04/10 12:55:13;;;;;;;4.40;2.63;;;18.00;99.90;;;;;;5041346;28;20221;-71
2023/04/10 12:58:18;;;;;;;5.15;2.90;;;18.10;99.90;;;;;;5043749;28;20270;-72
2023/04/10 13:01:09;;;;;;;7.20;2.92;;;18.10;99.90;;;;;;5037572;28;20371;-71
2023/04/10 13:03:58;;;;;;;5.10;2.90;;;18.10;99.90;;;;;;5036202;28;20232;-70
2023/04/10 13:06:51;;;;;;;5.82;3.28;;;18.10;99.90;;;;;;5023563;28;20303;-72
2023/04/10 13:09:40;;;;;;;4.57;3.13;;;18.10;99.90;;;;;;5023409;28;20218;-71
2023/04/10 13:12:29;;;;;;;3.35;3.05;;;18.10;99.90;;;;;;5030951;28;20220;-71
2023/04/10 13:15:23;;;;;;;5.32;3.00;;;18.30;99.90;;;;;;5039922;28;20251;-71
2023/04/10 13:18:12;;;;;;;4.05;2.70;;;17.90;99.90;;;;;;5031370;28;20232;-69
2023/04/10 13:21:01;;;;;;;4.85;3.10;;;17.90;99.90;;;;;;5032446;28;20893;-72
2023/04/10 13:23:49;;;;;;;4.72;2.50;;;18.00;99.90;;;;;;5021161;28;20236;-71
2023/04/10 13:26:38;;;;;;;3.88;2.72;;;18.30;99.90;;;;;;5016753;28;20336;-72
2023/04/10 13:29:27;;;;;;;6.18;2.80;;;18.40;99.90;;;;;;5042805;28;20419;-72
2023/04/10 13:32:18;;;;;;;4.50;2.70;;;18.10;99.90;;;;;;5033529;28;20254;-73
2023/04/10 13:35:07;;;;;;;3.63;2.95;;;18.00;99.90;;;;;;5035278;28;20282;-71
2023/04/10 13:37:56;;;;;;;4.13;2.50;;;17.70;99.90;;;;;;5032755;28;20307;-72
2023/04/10 13:40:45;;;;;;;3.10;2.75;;;17.60;99.90;;;;;;5041921;28;20221;-72
2023/04/10 13:43:33;;;;;;;3.83;2.90;;;17.40;99.90;;;;;;5011875;28;20221;-73
2023/04/10 13:46:22;;;;;;;5.35;2.80;;;16.90;99.90;;;;;;5040950;28;20235;-73
2023/04/10 13:49:15;;;;;;;5.63;3.10;;;16.80;99.90;;;;;;5032579;28;20222;-72
2023/04/10 13:52:04;;;;;;;8.70;6.18;;;16.70;99.90;;;;;;5016460;28;20231;-72
2023/04/10 13:54:53;;;;;;;4.75;3.03;;;16.80;99.90;;;;;;5036391;28;20237;-71
2023/04/10 13:57:42;;;;;;;5.10;3.33;;;16.50;99.90;;;;;;5034296;28;20306;-72
2023/04/10 14:00:31;;;;;;;7.70;3.60;;;16.40;99.90;;;;;;5021945;28;20221;-71
2023/04/10 14:03:20;;;;;;;4.82;3.33;;;16.30;99.90;;;;;;5031734;28;20233;-71
2023/04/10 14:06:10;;;;;;;6.40;3.40;;;16.50;99.90;;;;;;5041541;28;20292;-69
2023/04/10 14:08:59;;;;;;;4.35;3.42;;;16.60;99.90;;;;;;5045866;28;20616;-70
2023/04/10 14:11:48;;;;;;;7.60;3.30;;;16.30;99.90;;;;;;5028188;28;20298;-72
2023/04/10 14:14:37;;;;;;;7.10;3.72;;;16.30;99.90;;;;;;5035810;28;20601;-73
2023/04/10 14:17:26;;;;;;;5.88;3.22;;;16.40;99.90;;;;;;5037228;28;20225;-72
2023/04/10 14:20:15;;;;;;;6.35;3.70;;;16.20;99.90;;;;;;5020732;28;20240;-74
2023/04/10 14:23:05;;;;;;;6.10;3.80;;;16.30;99.90;;;;;;5040883;28;20743;-72
2023/04/10 14:25:54;;;;;;;6.07;3.90;;;16.30;99.90;;;;;;5005523;28;20248;-73
2023/04/10 14:28:43;;;;;;;7.80;4.65;;;16.20;99.90;;;;;;5007897;28;20775;-72
2023/04/10 14:31:32;;;;;;;8.23;4.07;;;16.10;99.90;;;;;;5042342;28;20719;-73
2023/04/10 14:34:23;;;;;;;11.00;5.07;;;16.10;99.90;;;;;;5027374;28;20291;-70
2023/04/10 14:37:11;;;;;;;7.10;5.05;;;16.10;99.90;;;;;;5034294;28;20221;-71
2023/04/10 14:40:05;;;;;;;6.53;4.30;;;16.20;99.90;;;;;;5016857;28;20302;-71
2023/04/10 14:42:54;;;;;;;7.25;5.07;;;16.40;99.90;;;;;;5018954;28;20313;-73
2023/04/10 14:45:43;;;;;;;8.85;4.85;;;16.50;99.90;;;;;;5021957;28;20971;-72
2023/04/10 14:48:32;;;;;;;6.28;4.40;;;16.60;99.90;;;;;;5017947;28;20549;-72
2023/04/10 14:51:21;;;;;;;7.53;5.30;;;16.70;99.90;;;;;;5023520;28;20597;-72
2023/04/10 14:54:09;;;;;;;6.65;4.28;;;16.70;99.90;;;;;;5040111;28;20764;-72